createdAt,value
2017-12-13T00:00:03.487Z,0
2017-12-13T00:01:04.972Z,0
2017-12-13T00:02:06.483Z,0
2017-12-13T00:03:07.962Z,0
2017-12-13T00:04:09.491Z,0
2017-12-13T00:05:10.933Z,0
2017-12-13T00:06:12.355Z,0
2017-12-13T00:07:13.792Z,0
2017-12-13T00:08:15.227Z,0
2017-12-13T00:09:16.682Z,0
2017-12-13T00:10:18.127Z,0
2017-12-13T00:11:19.549Z,0
2017-12-13T00:12:21.035Z,0
2017-12-13T00:13:22.449Z,0
2017-12-13T00:14:23.884Z,0
2017-12-13T00:15:25.316Z,0
2017-12-13T00:16:26.810Z,0
2017-12-13T00:17:28.250Z,0
2017-12-13T00:18:29.678Z,0
2017-12-13T00:19:31.148Z,0
2017-12-13T00:20:32.567Z,0
2017-12-13T00:21:33.963Z,0
2017-12-13T00:22:35.421Z,0
2017-12-13T00:23:36.913Z,0
2017-12-13T00:24:38.380Z,0
2017-12-13T00:25:39.831Z,0
2017-12-13T00:26:41.335Z,0
2017-12-13T00:27:42.750Z,0
2017-12-13T00:28:44.205Z,0
2017-12-13T00:29:45.681Z,0
2017-12-13T00:30:47.131Z,0
2017-12-13T00:31:48.542Z,0
2017-12-13T00:32:50.004Z,0
2017-12-13T00:33:51.475Z,0
2017-12-13T00:34:52.945Z,0
2017-12-13T00:35:54.385Z,0
2017-12-13T00:36:55.847Z,0
2017-12-13T00:37:57.273Z,0
2017-12-13T00:38:58.930Z,0
2017-12-13T00:40:00.562Z,0
2017-12-13T00:41:02.016Z,0
2017-12-13T00:42:03.448Z,0
2017-12-13T00:43:04.843Z,0
2017-12-13T00:44:06.298Z,0
2017-12-13T00:45:07.751Z,0
2017-12-13T00:46:09.270Z,0
2017-12-13T00:47:10.691Z,0
2017-12-13T00:48:12.131Z,0
2017-12-13T00:49:13.567Z,0
2017-12-13T00:50:15.018Z,0
2017-12-13T00:51:16.491Z,0
2017-12-13T00:52:17.931Z,0
2017-12-13T00:53:19.365Z,0
2017-12-13T00:54:20.822Z,0
2017-12-13T00:55:22.252Z,0
2017-12-13T00:56:23.661Z,0
2017-12-13T00:57:25.102Z,0
2017-12-13T00:58:26.592Z,0
2017-12-13T00:59:28.017Z,0
2017-12-13T01:00:29.446Z,0
2017-12-13T01:01:30.873Z,0
2017-12-13T01:02:32.336Z,0
2017-12-13T01:03:33.758Z,0
2017-12-13T01:04:35.226Z,0
2017-12-13T01:05:36.686Z,0
2017-12-13T01:06:38.119Z,0
2017-12-13T01:07:39.555Z,0
2017-12-13T01:08:40.959Z,0
2017-12-13T01:09:42.410Z,0
2017-12-13T01:10:43.849Z,0
2017-12-13T01:11:45.258Z,0
2017-12-13T01:12:46.708Z,0
2017-12-13T01:13:48.189Z,0
2017-12-13T01:14:49.629Z,0
2017-12-13T01:15:51.079Z,0
2017-12-13T01:16:52.537Z,0
2017-12-13T01:17:53.970Z,0
2017-12-13T01:18:55.398Z,0
2017-12-13T01:19:56.882Z,0
2017-12-13T01:20:58.328Z,0
2017-12-13T01:21:59.802Z,0
2017-12-13T01:23:01.236Z,0
2017-12-13T01:24:02.692Z,0
2017-12-13T01:25:04.138Z,0
2017-12-13T01:26:05.593Z,0
2017-12-13T01:27:07.029Z,0
2017-12-13T01:28:08.509Z,0
2017-12-13T01:29:09.953Z,0
2017-12-13T01:30:11.388Z,0
2017-12-13T01:31:12.822Z,0
2017-12-13T01:32:14.245Z,0
2017-12-13T01:33:15.687Z,0
2017-12-13T01:34:17.127Z,0
2017-12-13T01:35:18.626Z,0
2017-12-13T01:36:20.055Z,0
2017-12-13T01:37:21.544Z,0
2017-12-13T01:38:22.966Z,0
2017-12-13T01:39:24.412Z,0
2017-12-13T01:40:25.854Z,0
2017-12-13T01:41:27.347Z,0
2017-12-13T01:42:28.821Z,0
2017-12-13T01:43:30.297Z,0
2017-12-13T01:44:31.735Z,0
2017-12-13T01:45:33.178Z,0
2017-12-13T01:46:34.625Z,0
2017-12-13T01:47:36.094Z,0
2017-12-13T01:48:37.542Z,0
2017-12-13T01:49:38.956Z,0
2017-12-13T01:50:40.401Z,0
2017-12-13T01:51:41.869Z,0
2017-12-13T01:52:43.287Z,0
2017-12-13T01:53:44.714Z,0
2017-12-13T01:54:46.199Z,0
2017-12-13T01:55:47.657Z,0
2017-12-13T01:56:49.088Z,0
2017-12-13T01:57:50.508Z,0
2017-12-13T01:58:51.963Z,0
2017-12-13T01:59:53.371Z,0
2017-12-13T02:00:54.824Z,0
2017-12-13T02:01:56.240Z,0
2017-12-13T02:02:57.684Z,0
2017-12-13T02:03:59.105Z,0
2017-12-13T02:05:00.550Z,0
2017-12-13T02:06:01.989Z,0
2017-12-13T02:07:03.391Z,0
2017-12-13T02:08:04.828Z,0
2017-12-13T02:09:06.268Z,0
2017-12-13T02:10:07.713Z,0
2017-12-13T02:11:09.260Z,0
2017-12-13T02:12:10.697Z,0
2017-12-13T02:13:12.130Z,0
2017-12-13T02:14:13.589Z,0
2017-12-13T02:15:15.029Z,0
2017-12-13T02:16:16.491Z,0
2017-12-13T02:17:17.936Z,0
2017-12-13T02:18:19.419Z,0
2017-12-13T02:19:20.874Z,0
2017-12-13T02:20:22.400Z,0
2017-12-13T02:22:03.736Z,0
2017-12-13T02:23:05.098Z,0
2017-12-13T02:24:06.482Z,0
2017-12-13T02:25:07.856Z,0
2017-12-13T02:26:13.777Z,0
2017-12-13T02:27:15.136Z,0
2017-12-13T02:28:16.528Z,0
2017-12-13T02:29:17.895Z,0
2017-12-13T02:30:19.308Z,0
2017-12-13T02:31:20.746Z,0
2017-12-13T02:32:22.195Z,0
2017-12-13T02:33:23.668Z,0
2017-12-13T02:34:25.101Z,0
2017-12-13T02:35:26.566Z,0
2017-12-13T02:36:28.000Z,0
2017-12-13T02:37:29.435Z,0
2017-12-13T02:38:30.847Z,0
2017-12-13T02:39:32.381Z,0
2017-12-13T02:40:33.796Z,0
2017-12-13T02:41:35.243Z,0
2017-12-13T02:42:36.750Z,0
2017-12-13T02:43:38.191Z,0
2017-12-13T02:44:39.638Z,0
2017-12-13T02:45:41.065Z,0
2017-12-13T02:46:42.520Z,0
2017-12-13T02:47:43.911Z,0
2017-12-13T02:48:45.386Z,0
2017-12-13T02:49:46.846Z,0
2017-12-13T02:50:48.260Z,0
2017-12-13T02:51:49.618Z,0
2017-12-13T02:52:51.000Z,0
2017-12-13T02:53:52.439Z,0
2017-12-13T02:54:53.896Z,0
2017-12-13T02:55:55.338Z,0
2017-12-13T02:56:56.821Z,0
2017-12-13T02:57:58.253Z,0
2017-12-13T02:58:59.726Z,0
2017-12-13T03:00:01.175Z,0
2017-12-13T03:01:02.595Z,0
2017-12-13T03:02:04.029Z,0
2017-12-13T03:03:05.441Z,0
2017-12-13T03:04:06.854Z,0
2017-12-13T03:05:08.328Z,0
2017-12-13T03:06:09.730Z,0
2017-12-13T03:07:11.221Z,0
2017-12-13T03:08:12.674Z,0
2017-12-13T03:09:14.194Z,0
2017-12-13T03:10:15.625Z,0
2017-12-13T03:11:17.076Z,0
2017-12-13T03:12:18.524Z,0
2017-12-13T03:13:19.975Z,0
2017-12-13T03:14:21.428Z,0
2017-12-13T03:15:22.862Z,0
2017-12-13T03:16:24.317Z,0
2017-12-13T03:17:25.752Z,0
2017-12-13T03:18:27.193Z,0
2017-12-13T03:19:28.624Z,0
2017-12-13T03:20:30.068Z,0
2017-12-13T03:21:31.498Z,0
2017-12-13T03:22:32.923Z,0
2017-12-13T03:23:34.383Z,0
2017-12-13T03:24:35.847Z,0
2017-12-13T03:25:37.278Z,0
2017-12-13T03:26:38.751Z,0
2017-12-13T03:27:40.220Z,0
2017-12-13T03:28:41.706Z,0
2017-12-13T03:29:43.137Z,0
2017-12-13T03:30:44.548Z,0
2017-12-13T03:31:45.981Z,0
2017-12-13T03:32:47.428Z,0
2017-12-13T03:33:48.950Z,0
2017-12-13T03:34:50.384Z,0
2017-12-13T03:35:51.820Z,0
2017-12-13T03:36:53.241Z,0
2017-12-13T03:37:54.674Z,0
2017-12-13T03:38:56.119Z,0
2017-12-13T03:39:57.553Z,0
2017-12-13T03:40:59.017Z,0
2017-12-13T03:42:00.421Z,0
2017-12-13T03:43:01.866Z,0
2017-12-13T03:44:03.341Z,0
2017-12-13T03:45:04.756Z,0
2017-12-13T03:46:06.189Z,0
2017-12-13T03:47:07.602Z,0
2017-12-13T03:48:09.066Z,0
2017-12-13T03:49:10.526Z,0
2017-12-13T03:50:11.966Z,0
2017-12-13T03:51:13.332Z,0
2017-12-13T03:52:14.788Z,0
2017-12-13T03:53:16.197Z,0
2017-12-13T03:54:17.661Z,0
2017-12-13T03:55:19.120Z,0
2017-12-13T03:56:20.599Z,0
2017-12-13T03:57:22.055Z,0
2017-12-13T03:58:23.502Z,0
2017-12-13T03:59:24.876Z,0
2017-12-13T04:00:26.308Z,0
2017-12-13T04:01:27.745Z,0
2017-12-13T04:02:29.169Z,0
2017-12-13T04:03:30.605Z,0
2017-12-13T04:04:32.040Z,0
2017-12-13T04:05:33.464Z,0
2017-12-13T04:06:34.921Z,0
2017-12-13T04:07:36.382Z,0
2017-12-13T04:08:37.794Z,0
2017-12-13T04:09:39.243Z,0
2017-12-13T04:10:40.716Z,0
2017-12-13T04:11:42.157Z,0
2017-12-13T04:12:43.636Z,0
2017-12-13T04:13:45.084Z,0
2017-12-13T04:14:46.496Z,0
2017-12-13T04:15:47.983Z,0
2017-12-13T04:16:49.482Z,0
2017-12-13T04:17:50.924Z,0
2017-12-13T04:18:52.333Z,0
2017-12-13T04:19:53.873Z,0
2017-12-13T04:20:55.297Z,0
2017-12-13T04:21:56.744Z,0
2017-12-13T04:22:58.169Z,0
2017-12-13T04:23:59.600Z,0
2017-12-13T04:25:01.019Z,0
2017-12-13T04:26:02.507Z,0
2017-12-13T04:27:03.965Z,0
2017-12-13T04:28:05.416Z,0
2017-12-13T04:29:06.807Z,0
2017-12-13T04:30:08.232Z,0
2017-12-13T04:31:09.663Z,0
2017-12-13T04:32:11.100Z,0
2017-12-13T04:33:12.511Z,0
2017-12-13T04:34:14.000Z,0
2017-12-13T04:35:15.440Z,0
2017-12-13T04:36:16.911Z,0
2017-12-13T04:37:18.346Z,0
2017-12-13T04:38:19.814Z,0
2017-12-13T04:39:21.282Z,0
2017-12-13T04:40:22.708Z,0
2017-12-13T04:41:24.180Z,0
2017-12-13T04:42:25.627Z,0
2017-12-13T04:43:27.047Z,0
2017-12-13T04:44:28.513Z,0
2017-12-13T04:45:29.930Z,0
2017-12-13T04:46:31.372Z,0
2017-12-13T04:47:32.830Z,0
2017-12-13T04:48:34.244Z,0
2017-12-13T04:49:35.656Z,0
2017-12-13T04:50:37.067Z,0
2017-12-13T04:51:38.506Z,0
2017-12-13T04:52:39.986Z,0
2017-12-13T04:53:41.397Z,0
2017-12-13T04:54:42.835Z,0
2017-12-13T04:55:44.317Z,0
2017-12-13T04:56:45.783Z,0
2017-12-13T04:57:47.279Z,0
2017-12-13T04:58:48.758Z,0
2017-12-13T04:59:50.160Z,0
2017-12-13T05:00:51.599Z,0
2017-12-13T05:01:53.026Z,0
2017-12-13T05:02:54.536Z,0
2017-12-13T05:03:55.998Z,0
2017-12-13T05:04:57.429Z,0
2017-12-13T05:05:58.864Z,0
2017-12-13T05:07:00.284Z,0
2017-12-13T05:08:01.709Z,0
2017-12-13T05:09:03.156Z,0
2017-12-13T05:10:04.634Z,0
2017-12-13T05:11:06.041Z,0
2017-12-13T05:12:07.443Z,0
2017-12-13T05:13:08.868Z,0
2017-12-13T05:14:10.313Z,0
2017-12-13T05:15:11.741Z,0
2017-12-13T05:16:13.177Z,0
2017-12-13T05:17:14.622Z,0
2017-12-13T05:18:16.028Z,0
2017-12-13T05:19:17.479Z,0
2017-12-13T05:20:18.938Z,0
2017-12-13T05:21:20.370Z,0
2017-12-13T05:22:21.774Z,0
2017-12-13T05:23:23.207Z,0
2017-12-13T05:24:24.659Z,0
2017-12-13T05:25:26.092Z,0
2017-12-13T05:26:27.548Z,0
2017-12-13T05:27:29.070Z,0
2017-12-13T05:28:30.498Z,0
2017-12-13T05:29:31.917Z,0
2017-12-13T05:30:33.313Z,0
2017-12-13T05:31:34.761Z,0
2017-12-13T05:32:36.206Z,0
2017-12-13T05:33:37.638Z,0
2017-12-13T05:34:39.115Z,0
2017-12-13T05:35:40.535Z,0
2017-12-13T05:36:41.976Z,0
2017-12-13T05:37:43.426Z,0
2017-12-13T05:38:44.848Z,0
2017-12-13T05:39:46.658Z,0
2017-12-13T05:40:48.070Z,0
2017-12-13T05:41:49.552Z,0
2017-12-13T05:42:50.983Z,0
2017-12-13T05:43:52.367Z,0
2017-12-13T05:44:53.825Z,0
2017-12-13T05:45:55.243Z,0
2017-12-13T05:46:56.732Z,0
2017-12-13T05:47:58.177Z,0
2017-12-13T05:48:59.633Z,0
2017-12-13T05:50:01.048Z,0
2017-12-13T05:51:02.513Z,0
2017-12-13T05:52:03.994Z,0
2017-12-13T05:53:05.462Z,0
2017-12-13T05:54:06.894Z,0
2017-12-13T05:55:08.373Z,0
2017-12-13T05:56:09.806Z,0
2017-12-13T05:57:11.276Z,0
2017-12-13T05:58:12.690Z,0
2017-12-13T05:59:14.194Z,0
2017-12-13T06:00:15.624Z,0
2017-12-13T06:01:17.070Z,0
2017-12-13T06:02:18.525Z,0
2017-12-13T06:03:19.969Z,0
2017-12-13T06:04:21.390Z,0
2017-12-13T06:05:22.830Z,0
2017-12-13T06:06:24.294Z,0
2017-12-13T06:07:25.731Z,0
2017-12-13T06:08:27.175Z,0
2017-12-13T06:09:28.609Z,0
2017-12-13T06:10:30.057Z,0
2017-12-13T06:11:31.505Z,0
2017-12-13T06:12:32.997Z,0
2017-12-13T06:13:34.456Z,0
2017-12-13T06:14:35.886Z,0
2017-12-13T06:15:37.365Z,0
2017-12-13T06:16:38.784Z,0
2017-12-13T06:17:40.216Z,0
2017-12-13T06:18:41.738Z,0
2017-12-13T06:19:43.157Z,0
2017-12-13T06:20:44.653Z,0
2017-12-13T06:21:46.124Z,0
2017-12-13T06:22:47.539Z,0
2017-12-13T06:23:48.971Z,0
2017-12-13T06:24:50.425Z,0
2017-12-13T06:25:51.885Z,0
2017-12-13T06:26:53.288Z,0
2017-12-13T06:27:54.762Z,0
2017-12-13T06:28:56.194Z,0
2017-12-13T06:29:57.605Z,0
2017-12-13T06:30:59.054Z,0
2017-12-13T06:32:00.472Z,0
2017-12-13T06:33:01.910Z,0
2017-12-13T06:34:03.287Z,0
2017-12-13T06:35:04.747Z,0
2017-12-13T06:36:06.215Z,0
2017-12-13T06:37:07.589Z,0
2017-12-13T06:38:09.019Z,0
2017-12-13T06:39:10.507Z,0
2017-12-13T06:40:12.137Z,0
2017-12-13T06:41:13.559Z,0
2017-12-13T06:42:14.963Z,0
2017-12-13T06:43:16.391Z,0
2017-12-13T06:44:17.799Z,0
2017-12-13T06:45:19.213Z,0
2017-12-13T06:46:20.585Z,0
2017-12-13T06:47:21.997Z,0
2017-12-13T06:48:23.418Z,0
2017-12-13T06:49:24.859Z,0
2017-12-13T06:50:26.308Z,0
2017-12-13T06:51:27.700Z,0
2017-12-13T06:52:29.141Z,0
2017-12-13T06:53:30.599Z,0
2017-12-13T06:54:32.162Z,0
2017-12-13T06:55:33.604Z,0
2017-12-13T06:56:35.062Z,0
2017-12-13T06:57:36.570Z,0
2017-12-13T06:58:37.991Z,0
2017-12-13T06:59:39.401Z,0
2017-12-13T07:00:40.772Z,0
2017-12-13T07:01:42.206Z,0
2017-12-13T07:02:43.598Z,0
2017-12-13T07:03:45.038Z,0
2017-12-13T07:04:46.453Z,0
2017-12-13T07:05:47.895Z,0
2017-12-13T07:06:49.350Z,0
2017-12-13T07:07:50.775Z,0
2017-12-13T07:08:52.210Z,0
2017-12-13T07:09:53.672Z,0
2017-12-13T07:10:55.081Z,0
2017-12-13T07:11:56.510Z,0
2017-12-13T07:12:57.897Z,5
2017-12-13T07:13:59.348Z,5
2017-12-13T07:15:00.801Z,5
2017-12-13T07:16:02.259Z,5
2017-12-13T07:17:03.713Z,5
2017-12-13T07:18:05.171Z,5
2017-12-13T07:19:06.558Z,5
2017-12-13T07:20:08.018Z,5
2017-12-13T07:21:09.493Z,5
2017-12-13T07:22:10.910Z,5
2017-12-13T07:23:12.365Z,10
2017-12-13T07:24:13.814Z,10
2017-12-13T07:25:15.226Z,10
2017-12-13T07:26:16.661Z,10
2017-12-13T07:27:18.065Z,10
2017-12-13T07:28:19.536Z,10
2017-12-13T07:29:20.922Z,15
2017-12-13T07:30:22.299Z,15
2017-12-13T07:31:23.680Z,15
2017-12-13T07:32:25.118Z,15
2017-12-13T07:33:26.552Z,15
2017-12-13T07:34:27.952Z,15
2017-12-13T07:35:29.412Z,20
2017-12-13T07:36:30.812Z,20
2017-12-13T07:37:32.211Z,20
2017-12-13T07:38:33.667Z,20
2017-12-13T07:39:35.071Z,25
2017-12-13T07:40:36.470Z,25
2017-12-13T07:41:37.919Z,25
2017-12-13T07:42:39.377Z,25
2017-12-13T07:43:40.764Z,30
2017-12-13T07:44:42.167Z,30
2017-12-13T07:45:43.612Z,30
2017-12-13T07:46:45.062Z,35
2017-12-13T07:47:46.477Z,35
2017-12-13T07:48:47.937Z,40
2017-12-13T07:49:49.434Z,40
2017-12-13T07:50:50.858Z,45
2017-12-13T07:51:52.296Z,45
2017-12-13T07:52:53.688Z,45
2017-12-13T07:53:55.170Z,50
2017-12-13T07:54:56.606Z,50
2017-12-13T07:55:58.016Z,55
2017-12-13T07:56:59.498Z,55
2017-12-13T07:58:00.893Z,60
2017-12-13T07:59:02.430Z,60
2017-12-13T08:00:03.836Z,60
2017-12-13T08:01:05.266Z,65
2017-12-13T08:02:06.761Z,65
2017-12-13T08:03:08.238Z,65
2017-12-13T08:04:09.713Z,65
2017-12-13T08:05:11.126Z,70
2017-12-13T08:06:12.521Z,80
2017-12-13T08:07:13.950Z,95
2017-12-13T08:08:15.343Z,100
2017-12-13T08:09:16.802Z,95
2017-12-13T08:10:18.271Z,95
2017-12-13T08:11:19.732Z,95
2017-12-13T08:12:21.164Z,100
2017-12-13T08:13:22.568Z,110
2017-12-13T08:14:23.996Z,135
2017-12-13T08:15:25.431Z,145
2017-12-13T08:16:26.869Z,145
2017-12-13T08:17:28.288Z,170
2017-12-13T08:18:29.700Z,155
2017-12-13T08:19:31.139Z,180
2017-12-13T08:20:32.604Z,180
2017-12-13T08:21:34.050Z,185
2017-12-13T08:22:35.509Z,180
2017-12-13T08:23:36.970Z,140
2017-12-13T08:24:38.389Z,130
2017-12-13T08:25:39.848Z,135
2017-12-13T08:26:41.282Z,130
2017-12-13T08:27:42.702Z,130
2017-12-13T08:28:44.184Z,145
2017-12-13T08:29:45.629Z,170
2017-12-13T08:30:47.052Z,210
2017-12-13T08:31:48.655Z,180
2017-12-13T08:32:50.117Z,175
2017-12-13T08:33:51.538Z,235
2017-12-13T08:34:52.973Z,170
2017-12-13T08:35:54.400Z,135
2017-12-13T08:36:55.836Z,130
2017-12-13T08:37:57.285Z,115
2017-12-13T08:38:58.695Z,105
2017-12-13T08:40:00.153Z,90
2017-12-13T08:41:01.573Z,80
2017-12-13T08:42:02.999Z,80
2017-12-13T08:43:04.453Z,80
2017-12-13T08:44:05.898Z,85
2017-12-13T08:45:07.328Z,95
2017-12-13T08:46:08.756Z,115
2017-12-13T08:47:10.227Z,135
2017-12-13T08:48:11.668Z,145
2017-12-13T08:49:13.121Z,160
2017-12-13T08:50:14.615Z,175
2017-12-13T08:51:16.044Z,190
2017-12-13T08:52:17.477Z,200
2017-12-13T08:53:18.931Z,210
2017-12-13T08:54:20.370Z,225
2017-12-13T08:55:21.761Z,235
2017-12-13T08:56:23.162Z,250
2017-12-13T08:57:24.644Z,260
2017-12-13T08:58:26.069Z,265
2017-12-13T08:59:27.521Z,260
2017-12-13T09:00:29.002Z,265
2017-12-13T09:01:30.467Z,250
2017-12-13T09:02:31.875Z,250
2017-12-13T09:03:33.372Z,260
2017-12-13T09:04:34.831Z,260
2017-12-13T09:05:36.270Z,255
2017-12-13T09:06:37.675Z,245
2017-12-13T09:07:39.138Z,240
2017-12-13T09:08:40.549Z,240
2017-12-13T09:09:41.990Z,230
2017-12-13T09:10:43.394Z,230
2017-12-13T09:11:44.909Z,235
2017-12-13T09:12:46.332Z,250
2017-12-13T09:13:47.774Z,255
2017-12-13T09:14:49.322Z,265
2017-12-13T09:15:50.776Z,270
2017-12-13T09:16:52.222Z,275
2017-12-13T09:17:53.641Z,280
2017-12-13T09:18:55.141Z,265
2017-12-13T09:19:56.647Z,250
2017-12-13T09:20:58.073Z,240
2017-12-13T09:21:59.504Z,220
2017-12-13T09:23:00.951Z,205
2017-12-13T09:24:02.386Z,190
2017-12-13T09:25:03.853Z,175
2017-12-13T09:26:05.260Z,160
2017-12-13T09:27:06.751Z,150
2017-12-13T09:28:08.161Z,140
2017-12-13T09:29:09.578Z,140
2017-12-13T09:30:10.989Z,140
2017-12-13T09:31:12.455Z,140
2017-12-13T09:32:13.951Z,140
2017-12-13T09:33:15.394Z,140
2017-12-13T09:34:16.834Z,135
2017-12-13T09:35:18.327Z,125
2017-12-13T09:36:19.768Z,115
2017-12-13T09:37:21.271Z,105
2017-12-13T09:38:22.754Z,95
2017-12-13T09:39:24.263Z,85
2017-12-13T09:40:25.709Z,75
2017-12-13T09:41:27.176Z,65
2017-12-13T09:42:28.613Z,70
2017-12-13T09:43:30.048Z,80
2017-12-13T09:44:31.503Z,85
2017-12-13T09:45:32.951Z,100
2017-12-13T09:46:34.353Z,105
2017-12-13T09:47:35.875Z,110
2017-12-13T09:48:37.357Z,110
2017-12-13T09:49:38.838Z,110
2017-12-13T09:50:40.343Z,110
2017-12-13T09:51:41.786Z,110
2017-12-13T09:52:43.224Z,115
2017-12-13T09:53:44.746Z,110
2017-12-13T09:54:46.168Z,100
2017-12-13T09:55:47.623Z,100
2017-12-13T09:56:49.131Z,95
2017-12-13T09:57:50.592Z,85
2017-12-13T09:58:52.053Z,85
2017-12-13T09:59:53.502Z,85
2017-12-13T10:00:54.972Z,80
2017-12-13T10:01:56.490Z,75
2017-12-13T10:02:57.968Z,75
2017-12-13T10:03:59.385Z,80
2017-12-13T10:05:00.851Z,85
2017-12-13T10:06:02.270Z,85
2017-12-13T10:07:03.710Z,90
2017-12-13T10:08:05.147Z,95
2017-12-13T10:09:06.640Z,100
2017-12-13T10:10:08.091Z,105
2017-12-13T10:11:09.484Z,110
2017-12-13T10:12:10.933Z,110
2017-12-13T10:13:12.417Z,105
2017-12-13T10:14:13.899Z,110
2017-12-13T10:15:15.386Z,105
2017-12-13T10:16:16.833Z,110
2017-12-13T10:17:18.291Z,110
2017-12-13T10:18:19.734Z,105
2017-12-13T10:19:21.099Z,105
2017-12-13T10:20:22.538Z,110
2017-12-13T10:21:24.042Z,105
2017-12-13T10:22:25.487Z,100
2017-12-13T10:23:26.978Z,95
2017-12-13T10:24:28.395Z,90
2017-12-13T10:25:29.816Z,85
2017-12-13T10:26:31.299Z,75
2017-12-13T10:27:32.752Z,70
2017-12-13T10:28:34.209Z,70
2017-12-13T10:29:35.652Z,65
2017-12-13T10:30:37.066Z,65
2017-12-13T10:31:38.530Z,65
2017-12-13T10:32:39.992Z,60
2017-12-13T10:33:41.506Z,60
2017-12-13T10:34:42.974Z,65
2017-12-13T10:35:44.422Z,70
2017-12-13T10:36:45.842Z,75
2017-12-13T10:37:47.291Z,80
2017-12-13T10:38:48.777Z,85
2017-12-13T10:39:50.263Z,90
2017-12-13T10:40:51.679Z,95
2017-12-13T10:41:53.143Z,95
2017-12-13T10:42:54.580Z,95
2017-12-13T10:43:55.953Z,95
2017-12-13T10:44:57.382Z,95
2017-12-13T10:45:58.778Z,95
2017-12-13T10:47:00.179Z,95
2017-12-13T10:48:01.558Z,100
2017-12-13T10:49:02.980Z,100
2017-12-13T10:50:04.361Z,100
2017-12-13T10:51:05.791Z,100
2017-12-13T10:52:07.176Z,100
2017-12-13T10:53:08.616Z,105
2017-12-13T10:54:10.007Z,105
2017-12-13T10:55:11.405Z,105
2017-12-13T10:56:12.784Z,105
2017-12-13T10:57:14.208Z,105
2017-12-13T10:58:15.661Z,105
2017-12-13T10:59:17.082Z,105
2017-12-13T11:00:18.472Z,105
2017-12-13T11:01:19.850Z,110
2017-12-13T11:02:21.237Z,110
2017-12-13T11:03:22.663Z,110
2017-12-13T11:04:24.071Z,110
2017-12-13T11:05:25.475Z,110
2017-12-13T11:06:26.869Z,110
2017-12-13T11:07:28.289Z,110
2017-12-13T11:08:29.674Z,110
2017-12-13T11:09:31.077Z,110
2017-12-13T11:10:32.467Z,110
2017-12-13T11:11:33.876Z,115
2017-12-13T11:12:35.321Z,115
2017-12-13T11:13:36.716Z,120
2017-12-13T11:14:38.126Z,120
2017-12-13T11:15:39.576Z,125
2017-12-13T11:16:40.959Z,130
2017-12-13T11:17:43.219Z,125
2017-12-13T11:18:44.663Z,130
2017-12-13T11:19:46.104Z,135
2017-12-13T11:20:47.539Z,135
2017-12-13T11:21:48.929Z,135
2017-12-13T11:22:50.392Z,135
2017-12-13T11:23:51.795Z,140
2017-12-13T11:24:53.227Z,145
2017-12-13T11:25:54.646Z,145
2017-12-13T11:26:56.034Z,150
2017-12-13T11:27:57.431Z,150
2017-12-13T11:28:58.945Z,145
2017-12-13T11:30:00.368Z,150
2017-12-13T11:31:01.801Z,155
2017-12-13T11:32:03.201Z,155
2017-12-13T11:33:04.594Z,155
2017-12-13T11:34:06.059Z,150
2017-12-13T11:35:07.481Z,155
2017-12-13T11:36:08.947Z,155
2017-12-13T11:37:10.395Z,150
2017-12-13T11:38:11.812Z,150
2017-12-13T11:39:13.215Z,145
2017-12-13T11:40:14.642Z,140
2017-12-13T11:41:16.122Z,135
2017-12-13T11:42:17.560Z,135
2017-12-13T11:43:19.009Z,130
2017-12-13T11:44:20.469Z,125
2017-12-13T11:45:21.967Z,120
2017-12-13T11:46:23.353Z,115
2017-12-13T11:47:24.801Z,115
2017-12-13T11:48:26.247Z,115
2017-12-13T11:49:27.705Z,115
2017-12-13T11:50:29.093Z,115
2017-12-13T11:51:30.523Z,110
2017-12-13T11:52:31.947Z,105
2017-12-13T11:53:33.373Z,100
2017-12-13T11:54:34.822Z,100
2017-12-13T11:55:36.227Z,105
2017-12-13T11:56:37.684Z,110
2017-12-13T11:57:39.084Z,115
2017-12-13T11:58:40.565Z,120
2017-12-13T11:59:41.977Z,115
2017-12-13T12:00:43.447Z,110
2017-12-13T12:01:44.904Z,105
2017-12-13T12:02:46.332Z,105
2017-12-13T12:03:47.719Z,105
2017-12-13T12:04:49.187Z,100
2017-12-13T12:05:50.681Z,100
2017-12-13T12:06:52.085Z,85
2017-12-13T12:07:53.527Z,70
2017-12-13T12:08:54.954Z,60
2017-12-13T12:09:56.388Z,45
2017-12-13T12:10:57.803Z,40
2017-12-13T12:11:59.203Z,40
2017-12-13T12:13:00.666Z,40
2017-12-13T12:14:02.054Z,35
2017-12-13T12:15:03.535Z,35
2017-12-13T12:16:04.909Z,35
2017-12-13T12:17:06.322Z,35
2017-12-13T12:18:07.732Z,40
2017-12-13T12:19:09.165Z,50
2017-12-13T12:20:10.627Z,55
2017-12-13T12:21:12.113Z,60
2017-12-13T12:22:13.564Z,65
2017-12-13T12:23:14.972Z,70
2017-12-13T12:24:16.358Z,70
2017-12-13T12:25:17.815Z,80
2017-12-13T12:26:19.197Z,85
2017-12-13T12:27:20.670Z,90
2017-12-13T12:28:22.092Z,95
2017-12-13T12:29:23.488Z,95
2017-12-13T12:30:24.881Z,85
2017-12-13T12:31:26.373Z,80
2017-12-13T12:32:27.746Z,80
2017-12-13T12:33:29.124Z,75
2017-12-13T12:34:30.509Z,70
2017-12-13T12:35:31.912Z,70
2017-12-13T12:36:33.495Z,80
2017-12-13T12:37:34.888Z,90
2017-12-13T12:38:36.470Z,90
2017-12-13T12:39:37.813Z,85
2017-12-13T12:40:39.204Z,75
2017-12-13T12:41:40.679Z,70
2017-12-13T12:42:42.491Z,65
2017-12-13T12:43:44.247Z,60
2017-12-13T12:44:45.639Z,60
2017-12-13T12:45:47.065Z,55
2017-12-13T12:46:48.474Z,55
2017-12-13T12:47:49.905Z,55
2017-12-13T12:48:51.391Z,55
2017-12-13T12:49:52.802Z,55
2017-12-13T12:50:54.226Z,60
2017-12-13T12:51:55.644Z,60
2017-12-13T12:52:57.049Z,65
2017-12-13T12:53:58.423Z,65
2017-12-13T12:54:59.823Z,65
2017-12-13T12:56:01.248Z,65
2017-12-13T12:57:02.621Z,65
2017-12-13T12:58:04.041Z,60
2017-12-13T12:59:05.527Z,60
2017-12-13T13:00:06.904Z,55
2017-12-13T13:01:08.350Z,55
2017-12-13T13:02:09.792Z,55
2017-12-13T13:03:11.202Z,60
2017-12-13T13:04:12.602Z,60
2017-12-13T13:05:14.057Z,60
2017-12-13T13:06:15.596Z,55
2017-12-13T13:07:17.027Z,60
2017-12-13T13:08:18.474Z,70
2017-12-13T13:09:19.855Z,75
2017-12-13T13:10:21.364Z,75
2017-12-13T13:11:22.810Z,80
2017-12-13T13:12:24.244Z,80
2017-12-13T13:13:25.706Z,80
2017-12-13T13:14:27.108Z,75
2017-12-13T13:15:28.534Z,75
2017-12-13T13:16:29.932Z,70
2017-12-13T13:17:31.376Z,75
2017-12-13T13:18:32.796Z,75
2017-12-13T13:19:34.243Z,80
2017-12-13T13:20:35.644Z,80
2017-12-13T13:21:37.104Z,85
2017-12-13T13:22:38.527Z,85
2017-12-13T13:23:39.963Z,90
2017-12-13T13:24:41.394Z,90
2017-12-13T13:25:42.815Z,90
2017-12-13T13:26:44.278Z,90
2017-12-13T13:27:45.688Z,90
2017-12-13T13:28:47.128Z,85
2017-12-13T13:29:48.547Z,80
2017-12-13T13:30:49.966Z,80
2017-12-13T13:31:51.388Z,75
2017-12-13T13:32:52.843Z,75
2017-12-13T13:33:54.292Z,75
2017-12-13T13:34:55.752Z,70
2017-12-13T13:35:57.159Z,70
2017-12-13T13:36:58.570Z,70
2017-12-13T13:37:59.996Z,70
2017-12-13T13:39:01.427Z,65
2017-12-13T13:40:02.855Z,65
2017-12-13T13:41:04.279Z,65
2017-12-13T13:42:05.699Z,65
2017-12-13T13:43:07.115Z,60
2017-12-13T13:44:08.504Z,60
2017-12-13T13:45:09.959Z,60
2017-12-13T13:46:11.360Z,60
2017-12-13T13:47:12.786Z,60
2017-12-13T13:48:14.177Z,55
2017-12-13T13:49:15.579Z,55
2017-12-13T13:50:17.020Z,55
2017-12-13T13:51:18.418Z,50
2017-12-13T13:52:19.799Z,50
2017-12-13T13:53:21.204Z,50
2017-12-13T13:54:22.604Z,45
2017-12-13T13:55:24.038Z,45
2017-12-13T13:56:25.459Z,45
2017-12-13T13:57:26.867Z,45
2017-12-13T13:58:28.275Z,50
2017-12-13T13:59:29.696Z,50
2017-12-13T14:00:31.127Z,55
2017-12-13T14:01:32.544Z,55
2017-12-13T14:02:33.926Z,60
2017-12-13T14:03:35.359Z,60
2017-12-13T14:04:36.752Z,60
2017-12-13T14:05:38.190Z,60
2017-12-13T14:06:39.574Z,55
2017-12-13T14:07:41.040Z,55
2017-12-13T14:08:42.435Z,50
2017-12-13T14:09:43.852Z,50
2017-12-13T14:10:45.260Z,45
2017-12-13T14:11:46.667Z,45
2017-12-13T14:12:48.033Z,40
2017-12-13T14:13:49.437Z,40
2017-12-13T14:14:50.863Z,40
2017-12-13T14:15:52.227Z,40
2017-12-13T14:16:53.665Z,40
2017-12-13T14:17:55.125Z,35
2017-12-13T14:18:56.560Z,35
2017-12-13T14:19:57.965Z,35
2017-12-13T14:20:59.365Z,35
2017-12-13T14:22:00.817Z,35
2017-12-13T14:23:02.227Z,35
2017-12-13T14:24:03.614Z,35
2017-12-13T14:25:04.991Z,30
2017-12-13T14:26:06.459Z,30
2017-12-13T14:27:07.865Z,30
2017-12-13T14:28:09.247Z,30
2017-12-13T14:29:10.664Z,30
2017-12-13T14:30:12.061Z,25
2017-12-13T14:31:13.440Z,25
2017-12-13T14:32:14.826Z,25
2017-12-13T14:33:16.223Z,25
2017-12-13T14:34:17.631Z,25
2017-12-13T14:35:19.016Z,25
2017-12-13T14:36:20.425Z,25
2017-12-13T14:37:21.820Z,20
2017-12-13T14:38:23.227Z,25
2017-12-13T14:39:24.615Z,25
2017-12-13T14:40:26.044Z,20
2017-12-13T14:41:27.463Z,20
2017-12-13T14:42:28.848Z,20
2017-12-13T14:43:30.229Z,20
2017-12-13T14:44:31.707Z,20
2017-12-13T14:45:33.118Z,20